createdAt,value
2023-01-05T00:00:07.313Z,37.30
2023-01-05T00:03:09.036Z,32.03
2023-01-05T00:06:13.508Z,33.55
2023-01-05T00:09:17.583Z,32.03
2023-01-05T00:12:38.164Z,29.73
2023-01-05T00:15:58.383Z,30.45
2023-01-05T00:19:18.553Z,28.00
2023-01-05T00:22:33.656Z,25.95
2023-01-05T00:25:40.976Z,33.17
2023-01-05T00:28:42.637Z,33.63
2023-01-05T00:31:44.622Z,27.83
2023-01-05T00:34:46.463Z,32.00
2023-01-05T00:37:48.222Z,29.90
2023-01-05T00:40:49.908Z,28.77
2023-01-05T00:43:51.679Z,29.97
2023-01-05T00:46:53.404Z,29.02
2023-01-05T00:49:55.107Z,31.92
2023-01-05T00:52:56.887Z,30.33
2023-01-05T00:55:58.862Z,28.73
2023-01-05T00:59:00.639Z,32.80
2023-01-05T01:02:02.486Z,29.20
2023-01-05T01:05:05.375Z,27.02
2023-01-05T01:08:07.236Z,27.08
2023-01-05T01:11:10.544Z,27.77
2023-01-05T01:14:13.773Z,28.37
2023-01-05T01:17:17.207Z,27.30
2023-01-05T01:20:19.107Z,20.75
2023-01-05T01:23:20.808Z,30.52
2023-01-05T01:26:22.437Z,27.38
2023-01-05T01:29:24.525Z,27.97
2023-01-05T01:32:26.269Z,27.10
2023-01-05T01:35:27.923Z,26.70
2023-01-05T01:38:29.684Z,26.20
2023-01-05T01:41:31.436Z,24.48
2023-01-05T01:44:56.232Z,26.80
2023-01-05T01:48:00.735Z,25.10
2023-01-05T01:51:12.010Z,30.23
2023-01-05T01:54:18.206Z,27.00
2023-01-05T01:57:21.986Z,28.08
2023-01-05T02:00:23.782Z,27.43
2023-01-05T02:03:25.977Z,23.92
2023-01-05T02:06:27.688Z,26.15
2023-01-05T02:09:29.767Z,25.77
2023-01-05T02:13:05.038Z,21.60
2023-01-05T02:16:21.521Z,27.80
2023-01-05T02:19:26.427Z,27.58
2023-01-05T02:22:36.985Z,26.80
2023-01-05T02:26:02.052Z,28.38
2023-01-05T02:29:06.464Z,24.42
2023-01-05T02:32:23.112Z,26.50
2023-01-05T02:35:40.406Z,25.33
2023-01-05T02:39:30.901Z,28.02
2023-01-05T02:42:35.679Z,29.75
2023-01-05T02:45:37.419Z,24.35
2023-01-05T02:48:42.326Z,28.00
2023-01-05T02:51:49.331Z,28.98
2023-01-05T02:54:56.603Z,23.67
2023-01-05T02:58:18.475Z,27.85
2023-01-05T03:01:25.683Z,27.38
2023-01-05T03:04:50.853Z,23.37
2023-01-05T03:08:06.770Z,27.80
2023-01-05T03:11:30.263Z,23.98
2023-01-05T03:14:38.296Z,24.67
2023-01-05T03:17:44.415Z,24.73
2023-01-05T03:20:51.386Z,25.87
2023-01-05T03:24:15.226Z,25.55
2023-01-05T03:27:36.544Z,26.73
2023-01-05T03:31:25.753Z,23.17
2023-01-05T03:35:00.979Z,27.20
2023-01-05T03:38:24.569Z,23.70
2023-01-05T03:41:27.415Z,27.55
2023-01-05T03:44:29.175Z,22.63
2023-01-05T03:47:30.871Z,24.67
2023-01-05T03:50:32.656Z,26.30
2023-01-05T03:53:34.466Z,26.87
2023-01-05T03:56:36.133Z,23.17
2023-01-05T03:59:37.805Z,24.27
2023-01-05T04:02:39.727Z,26.27
2023-01-05T04:05:41.607Z,22.60
2023-01-05T04:08:43.485Z,27.90
2023-01-05T04:11:45.653Z,22.98
2023-01-05T04:14:47.409Z,27.83
2023-01-05T04:17:49.082Z,25.98
2023-01-05T04:20:50.764Z,28.65
2023-01-05T04:23:52.508Z,26.53
2023-01-05T04:26:54.245Z,26.38
2023-01-05T04:29:56.001Z,28.27
2023-01-05T04:32:57.770Z,30.20
2023-01-05T04:35:59.519Z,28.63
2023-01-05T04:39:01.396Z,30.17
2023-01-05T04:42:03.285Z,27.55
2023-01-05T04:45:05.872Z,28.00
2023-01-05T04:48:07.698Z,26.55
2023-01-05T04:51:09.563Z,31.00
2023-01-05T04:54:11.214Z,27.93
2023-01-05T04:57:12.890Z,27.25
2023-01-05T05:00:14.866Z,30.55
2023-01-05T05:03:16.598Z,29.52
2023-01-05T05:06:18.539Z,32.20
2023-01-05T05:09:20.367Z,32.33
2023-01-05T05:12:22.114Z,33.42
2023-01-05T05:15:23.896Z,33.10
2023-01-05T05:18:25.691Z,37.38
2023-01-05T05:21:27.530Z,31.73
2023-01-05T05:24:29.245Z,33.63
2023-01-05T05:27:30.948Z,32.97
2023-01-05T05:30:32.883Z,34.25
2023-01-05T05:33:34.642Z,35.92
2023-01-05T05:36:38.041Z,30.90
2023-01-05T05:39:39.727Z,33.10
2023-01-05T05:42:41.421Z,36.22
2023-01-05T05:45:50.013Z,33.63
2023-01-05T05:48:52.264Z,32.00
2023-01-05T05:51:53.946Z,32.63
2023-01-05T05:54:55.639Z,30.70
2023-01-05T05:57:57.453Z,36.10
2023-01-05T06:00:59.697Z,33.65
2023-01-05T06:04:01.407Z,40.15
2023-01-05T06:07:03.059Z,46.28
2023-01-05T06:10:05.200Z,47.13
2023-01-05T06:13:07.089Z,38.92
2023-01-05T06:16:08.862Z,39.35
2023-01-05T06:19:10.807Z,35.25
2023-01-05T06:22:12.459Z,45.72
2023-01-05T06:25:14.251Z,59.00
2023-01-05T06:28:20.249Z,53.90
2023-01-05T06:31:22.315Z,58.88
2023-01-05T06:34:24.159Z,40.78
2023-01-05T06:37:25.809Z,39.15
2023-01-05T06:40:27.575Z,132.93
2023-01-05T06:43:29.234Z,146.68
2023-01-05T06:46:31.125Z,108.93
2023-01-05T06:49:32.830Z,49.47
2023-01-05T06:52:36.772Z,41.35
2023-01-05T06:55:39.032Z,40.63
2023-01-05T06:58:41.226Z,38.53
2023-01-05T07:01:42.934Z,41.67
2023-01-05T07:04:44.740Z,46.03
2023-01-05T07:07:46.466Z,45.03
2023-01-05T07:10:48.246Z,47.13
2023-01-05T07:13:50.661Z,44.38
2023-01-05T07:16:52.411Z,37.50
2023-01-05T07:19:54.315Z,42.35
2023-01-05T07:22:56.384Z,37.97
2023-01-05T07:26:01.362Z,52.47
2023-01-05T07:29:03.397Z,44.97
2023-01-05T07:32:05.516Z,55.03
2023-01-05T07:35:07.559Z,55.42
2023-01-05T07:38:09.284Z,46.03
2023-01-05T07:41:11.013Z,53.43
2023-01-05T07:44:12.842Z,48.15
2023-01-05T07:47:14.573Z,53.92
2023-01-05T07:50:16.301Z,52.00
2023-01-05T07:53:18.027Z,54.03
2023-01-05T07:56:22.963Z,54.43
2023-01-05T07:59:24.771Z,45.70
2023-01-05T08:02:32.259Z,53.42
2023-01-05T08:05:37.210Z,55.88
2023-01-05T08:08:39.296Z,47.40
2023-01-05T08:11:41.241Z,62.13
2023-01-05T08:14:42.943Z,55.80
2023-01-05T08:17:44.672Z,38.75
2023-01-05T08:20:58.061Z,43.78
2023-01-05T08:23:59.858Z,44.85
2023-01-05T08:27:01.574Z,49.80
2023-01-05T08:30:03.781Z,45.88
2023-01-05T08:33:05.541Z,35.35
2023-01-05T08:36:12.929Z,43.53
2023-01-05T08:39:14.862Z,49.33
2023-01-05T08:42:16.856Z,47.23
2023-01-05T08:45:19.299Z,49.55
2023-01-05T08:48:21.405Z,42.13
2023-01-05T08:51:23.671Z,48.00
2023-01-05T08:54:25.386Z,39.47
2023-01-05T08:57:27.031Z,39.43
2023-01-05T09:00:28.753Z,48.03
2023-01-05T09:03:30.446Z,47.65
2023-01-05T09:06:32.085Z,49.20
2023-01-05T09:09:34.265Z,45.85
2023-01-05T09:12:36.713Z,46.33
2023-01-05T09:15:38.402Z,51.80
2023-01-05T09:18:41.932Z,45.30
2023-01-05T09:21:44.614Z,49.20
2023-01-05T09:24:46.520Z,53.67
2023-01-05T09:27:48.200Z,52.33
2023-01-05T09:30:51.008Z,49.60
2023-01-05T09:33:52.999Z,49.88
2023-01-05T09:36:54.660Z,46.60
2023-01-05T09:39:56.299Z,47.85
2023-01-05T09:42:58.231Z,43.70
2023-01-05T09:46:01.221Z,42.30
2023-01-05T09:49:07.676Z,41.35
2023-01-05T09:52:12.215Z,40.83
2023-01-05T09:55:19.213Z,37.42
2023-01-05T09:58:30.036Z,38.83
2023-01-05T10:01:34.524Z,45.28
2023-01-05T10:04:36.451Z,40.25
2023-01-05T10:07:43.901Z,39.17
2023-01-05T10:11:07.479Z,38.13
2023-01-05T10:14:16.258Z,36.23
2023-01-05T10:21:06.651Z,26.88
2023-01-05T10:24:17.517Z,28.95
2023-01-05T10:27:58.148Z,25.20
2023-01-05T10:31:02.357Z,23.30
2023-01-05T10:34:20.951Z,22.70
2023-01-05T10:37:59.489Z,22.52
2023-01-05T10:41:20.720Z,19.77
2023-01-05T10:44:40.457Z,20.45
2023-01-05T10:47:45.140Z,19.37
2023-01-05T10:50:48.237Z,20.85
2023-01-05T10:53:49.989Z,16.98
2023-01-05T10:56:51.672Z,20.65
2023-01-05T11:00:02.012Z,39.38
2023-01-05T11:03:04.232Z,42.60
2023-01-05T11:06:13.410Z,22.80
2023-01-05T11:09:23.094Z,20.60
2023-01-05T11:12:26.159Z,25.85
2023-01-05T11:15:30.479Z,24.25
2023-01-05T11:18:50.269Z,19.60
2023-01-05T11:21:56.622Z,22.15
2023-01-05T11:25:27.725Z,21.73
2023-01-05T11:28:30.438Z,21.92
2023-01-05T11:31:42.812Z,21.83
2023-01-05T11:34:47.117Z,19.27
2023-01-05T11:37:49.007Z,22.70
2023-01-05T11:40:51.572Z,20.05
2023-01-05T11:43:54.450Z,23.02
2023-01-05T11:46:56.233Z,25.85
2023-01-05T11:49:58.918Z,22.60
2023-01-05T11:53:02.410Z,21.15
2023-01-05T11:56:24.165Z,21.88
2023-01-05T11:59:30.034Z,23.33
2023-01-05T12:02:54.620Z,28.20
2023-01-05T12:06:10.100Z,39.17
2023-01-05T12:09:34.988Z,33.60
2023-01-05T12:12:48.882Z,26.33
2023-01-05T12:16:17.800Z,29.52
2023-01-05T12:19:24.517Z,28.85
2023-01-05T12:22:44.427Z,24.23
2023-01-05T12:26:19.534Z,24.67
2023-01-05T12:31:06.458Z,25.33
2023-01-05T12:36:57.114Z,21.63
2023-01-05T12:40:24.935Z,22.83
2023-01-05T12:44:02.062Z,15.85
2023-01-05T12:47:06.502Z,14.68
2023-01-05T12:50:55.885Z,14.20
2023-01-05T12:54:27.544Z,25.60
2023-01-05T12:57:39.001Z,16.97
2023-01-05T13:00:45.994Z,13.93
2023-01-05T13:03:59.025Z,13.85
2023-01-05T13:07:09.976Z,15.32
2023-01-05T13:10:44.371Z,12.63
2023-01-05T13:13:56.887Z,14.47
2023-01-05T13:17:06.255Z,11.70
2023-01-05T13:20:31.275Z,16.95
2023-01-05T13:23:48.474Z,15.93
2023-01-05T13:26:50.300Z,14.85
2023-01-05T13:29:59.357Z,17.53
2023-01-05T13:33:22.676Z,17.95
2023-01-05T13:36:45.996Z,13.30
2023-01-05T13:40:07.257Z,15.07
2023-01-05T13:43:46.576Z,23.33
2023-01-05T13:47:28.022Z,16.97
2023-01-05T13:50:55.080Z,15.05
2023-01-05T13:54:02.013Z,18.63
2023-01-05T13:57:10.366Z,19.85
2023-01-05T14:00:35.746Z,17.10
2023-01-05T14:07:03.940Z,13.88
2023-01-05T14:10:06.963Z,15.57
2023-01-05T14:13:54.791Z,12.38
2023-01-05T14:16:56.719Z,12.63
2023-01-05T14:19:58.426Z,14.30
2023-01-05T14:23:02.088Z,11.68
2023-01-05T14:26:04.825Z,11.68
2023-01-05T14:29:08.074Z,15.18
2023-01-05T14:32:12.140Z,12.02
2023-01-05T14:35:20.103Z,16.97
2023-01-05T14:38:24.892Z,21.10
2023-01-05T14:41:29.802Z,14.52
2023-01-05T14:44:43.044Z,11.55
2023-01-05T14:47:48.241Z,10.73
2023-01-05T14:51:12.297Z,10.53
2023-01-05T14:54:14.171Z,11.48
2023-01-05T14:57:24.886Z,16.88
2023-01-05T15:00:48.232Z,9.25
2023-01-05T15:03:57.240Z,8.68
2023-01-05T15:07:11.048Z,9.40
2023-01-05T15:10:30.805Z,10.20
2023-01-05T15:14:20.178Z,10.18
2023-01-05T15:17:49.550Z,10.10
2023-01-05T15:21:26.949Z,27.83
2023-01-05T15:25:08.329Z,7.47
2023-01-05T15:28:18.825Z,9.55
2023-01-05T15:31:52.542Z,9.95
2023-01-05T15:35:15.754Z,8.00
2023-01-05T15:38:28.689Z,8.88
2023-01-05T15:41:30.449Z,9.33
2023-01-05T15:44:39.059Z,8.82
2023-01-05T15:47:40.887Z,5.63
2023-01-05T15:50:53.260Z,4.82
2023-01-05T15:54:01.022Z,5.60
2023-01-05T15:57:02.804Z,5.03
2023-01-05T16:00:17.901Z,3.05
2023-01-05T16:03:31.468Z,2.67
2023-01-05T16:06:33.408Z,6.32
2023-01-05T16:09:38.878Z,5.10
2023-01-05T16:12:40.635Z,4.10
2023-01-05T16:15:47.710Z,2.53
2023-01-05T16:18:53.947Z,3.55
2023-01-05T16:22:04.449Z,5.63
2023-01-05T16:25:12.264Z,3.97
2023-01-05T16:28:19.088Z,4.37
2023-01-05T16:31:54.442Z,5.15
2023-01-05T16:35:24.086Z,2.30
2023-01-05T16:38:28.462Z,3.33
2023-01-05T16:41:30.281Z,3.83
2023-01-05T16:44:34.319Z,1.70
2023-01-05T16:47:38.530Z,4.85
2023-01-05T16:50:55.540Z,3.45
2023-01-05T16:54:11.995Z,3.08
2023-01-05T16:57:42.858Z,4.13
2023-01-05T17:00:44.599Z,2.97
2023-01-05T17:03:46.401Z,2.22
2023-01-05T17:06:50.379Z,3.67
2023-01-05T17:09:52.457Z,1.90
2023-01-05T17:13:05.663Z,5.80
2023-01-05T17:16:11.147Z,3.50
2023-01-05T17:19:14.674Z,2.85
2023-01-05T17:22:16.895Z,5.05
2023-01-05T17:25:18.672Z,6.82
2023-01-05T17:28:24.611Z,5.28
2023-01-05T17:31:27.275Z,4.07
2023-01-05T17:34:29.130Z,4.30
2023-01-05T17:37:30.776Z,5.07
2023-01-05T17:40:32.796Z,5.15
2023-01-05T17:43:34.446Z,4.53
2023-01-05T17:46:40.506Z,2.93
2023-01-05T17:49:43.761Z,5.22
2023-01-05T17:52:45.556Z,4.57
2023-01-05T17:55:47.582Z,3.30
2023-01-05T17:58:49.674Z,2.78
2023-01-05T18:01:51.421Z,5.67
2023-01-05T18:04:53.307Z,10.82
2023-01-05T18:07:55.067Z,11.23
2023-01-05T18:10:56.801Z,16.75
2023-01-05T18:13:58.538Z,19.35
2023-01-05T18:17:00.214Z,21.50
2023-01-05T18:20:02.244Z,17.92
2023-01-05T18:23:03.960Z,14.23
2023-01-05T18:26:08.126Z,12.23
2023-01-05T18:29:09.964Z,10.70
2023-01-05T18:32:12.353Z,8.40
2023-01-05T18:35:14.129Z,8.05
2023-01-05T18:38:15.886Z,5.78
2023-01-05T18:41:23.098Z,5.70
2023-01-05T18:44:25.119Z,4.20
2023-01-05T18:47:26.834Z,5.43
2023-01-05T18:50:28.888Z,5.15
2023-01-05T18:53:30.560Z,5.90
2023-01-05T18:56:32.375Z,10.43
2023-01-05T18:59:34.293Z,8.77
2023-01-05T19:02:36.053Z,4.50
2023-01-05T19:05:40.775Z,6.68
2023-01-05T19:08:43.168Z,6.03
2023-01-05T19:11:46.886Z,3.13
2023-01-05T19:14:48.568Z,2.35
2023-01-05T19:17:53.242Z,3.50
2023-01-05T19:20:57.215Z,3.15
2023-01-05T19:24:00.720Z,1.75
2023-01-05T19:27:02.403Z,1.50
2023-01-05T19:30:04.553Z,2.90
2023-01-05T19:33:06.539Z,4.17
2023-01-05T19:36:15.188Z,2.10
2023-01-05T19:39:19.614Z,4.25
2023-01-05T19:42:21.469Z,2.92
2023-01-05T19:45:23.222Z,1.27
2023-01-05T19:48:25.061Z,3.17
2023-01-05T19:51:29.059Z,2.38
2023-01-05T19:54:30.963Z,3.58
2023-01-05T19:57:32.689Z,3.60
2023-01-05T20:00:34.519Z,6.68
2023-01-05T20:03:36.167Z,1.90
2023-01-05T20:06:40.945Z,5.65
2023-01-05T20:09:42.764Z,4.10
2023-01-05T20:12:44.437Z,4.88
2023-01-05T20:15:46.393Z,12.90
2023-01-05T20:18:48.113Z,14.57
2023-01-05T20:21:50.862Z,9.18
2023-01-05T20:24:52.832Z,9.77
2023-01-05T20:27:54.510Z,7.43
2023-01-05T20:30:56.879Z,7.97
2023-01-05T20:34:02.208Z,10.97
2023-01-05T20:37:07.323Z,10.75
2023-01-05T20:40:09.485Z,13.32
2023-01-05T20:43:11.430Z,12.93
2023-01-05T20:46:14.646Z,12.43
2023-01-05T20:49:17.846Z,13.43
2023-01-05T20:52:19.805Z,12.23
2023-01-05T20:55:21.540Z,18.15
2023-01-05T20:58:26.852Z,12.80
2023-01-05T21:01:28.988Z,9.35
2023-01-05T21:04:30.912Z,7.17
2023-01-05T21:07:32.663Z,5.20
2023-01-05T21:10:36.799Z,7.13
2023-01-05T21:13:38.481Z,3.17
2023-01-05T21:16:43.627Z,3.78
2023-01-05T21:19:45.328Z,6.20
2023-01-05T21:22:47.223Z,2.75
2023-01-05T21:26:06.038Z,2.00
2023-01-05T21:29:13.176Z,2.00
2023-01-05T21:32:15.174Z,3.70
2023-01-05T21:35:17.069Z,1.70
2023-01-05T21:38:18.736Z,2.53
2023-01-05T21:41:41.417Z,6.00
2023-01-05T21:44:43.143Z,1.35
2023-01-05T21:47:45.380Z,1.20
2023-01-05T21:51:05.739Z,3.70
2023-01-05T21:54:37.497Z,4.85
2023-01-05T21:57:39.206Z,2.95
2023-01-05T22:00:40.921Z,6.03
2023-01-05T22:03:42.723Z,4.78
2023-01-05T22:06:44.432Z,2.40
2023-01-05T22:09:46.133Z,1.45
2023-01-05T22:12:47.795Z,3.03
2023-01-05T22:15:51.538Z,1.70
2023-01-05T22:18:59.140Z,2.33
2023-01-05T22:22:00.911Z,4.80
2023-01-05T22:25:02.598Z,3.22
2023-01-05T22:28:04.505Z,3.22
2023-01-05T22:31:07.962Z,2.30
2023-01-05T22:34:09.672Z,1.55
2023-01-05T22:37:11.403Z,2.47
2023-01-05T22:40:13.321Z,3.30
2023-01-05T22:43:15.044Z,1.73
2023-01-05T22:46:26.075Z,2.40
2023-01-05T22:49:28.642Z,2.90
2023-01-05T22:52:30.312Z,2.67
2023-01-05T22:55:31.983Z,2.35
2023-01-05T22:58:33.694Z,2.58
2023-01-05T23:01:43.306Z,2.28
2023-01-05T23:04:45.069Z,2.50
2023-01-05T23:07:47.382Z,2.10
2023-01-05T23:10:49.142Z,2.72
2023-01-05T23:13:52.496Z,3.33
2023-01-05T23:16:54.229Z,3.47
2023-01-05T23:19:55.911Z,1.30
2023-01-05T23:22:57.617Z,3.30
2023-01-05T23:25:59.795Z,1.88
2023-01-05T23:29:01.894Z,1.92
2023-01-05T23:32:04.424Z,2.72
2023-01-05T23:35:07.929Z,3.40
2023-01-05T23:38:10.310Z,3.87
2023-01-05T23:41:13.433Z,3.88
2023-01-05T23:44:15.112Z,2.15
2023-01-05T23:47:16.797Z,3.53
2023-01-05T23:50:18.505Z,1.70
2023-01-05T23:53:20.549Z,1.83
2023-01-05T23:56:28.716Z,1.38
2023-01-05T23:59:30.416Z,1.95
